createdAt,value
2022-12-05T00:04:18.986Z,40.30
2022-12-05T00:19:20.261Z,42.50
2022-12-05T00:34:21.646Z,42.80
2022-12-05T00:49:21.920Z,42.00
2022-12-05T01:04:22.310Z,41.70
2022-12-05T01:19:22.335Z,39.20
2022-12-05T01:34:22.611Z,40.50
2022-12-05T01:49:22.764Z,41.60
2022-12-05T02:04:22.952Z,41.50
2022-12-05T02:19:23.194Z,39.70
2022-12-05T02:34:23.386Z,41.20
2022-12-05T02:49:23.567Z,42.60
2022-12-05T03:04:23.881Z,40.50
2022-12-05T03:19:23.997Z,38.40
2022-12-05T03:34:24.198Z,38.10
2022-12-05T03:49:26.971Z,35.20
2022-12-05T04:04:29.525Z,31.60
2022-12-05T04:19:30.204Z,28.90
2022-12-05T04:34:30.870Z,28.00
2022-12-05T04:49:31.550Z,25.10
2022-12-05T05:04:32.274Z,24.20
2022-12-05T05:19:32.934Z,22.40
2022-12-05T05:34:33.506Z,20.60
2022-12-05T05:49:33.697Z,22.90
2022-12-05T06:04:34.384Z,21.80
2022-12-05T06:19:35.032Z,20.20
2022-12-05T06:34:36.344Z,18.50
2022-12-05T06:49:38.245Z,18.80
2022-12-05T07:04:38.942Z,18.10
2022-12-05T07:19:39.127Z,17.60
2022-12-05T07:34:39.348Z,15.40
2022-12-05T07:49:39.563Z,15.50
2022-12-05T08:04:39.677Z,15.20
2022-12-05T08:19:39.690Z,16.50
2022-12-05T08:34:39.820Z,16.00
2022-12-05T08:49:41.148Z,17.00
2022-12-05T09:04:41.540Z,17.10
2022-12-05T09:19:42.287Z,16.10
2022-12-05T09:34:43.060Z,16.40
2022-12-05T09:49:43.505Z,16.10
2022-12-05T10:04:43.530Z,16.00
2022-12-05T10:19:44.139Z,16.10
2022-12-05T10:34:44.892Z,15.90
2022-12-05T10:49:45.017Z,17.40
2022-12-05T11:04:45.357Z,17.70
2022-12-05T11:19:45.337Z,18.60
2022-12-05T11:34:45.506Z,20.40
2022-12-05T11:49:45.710Z,21.20
2022-12-05T12:04:46.659Z,18.70
2022-12-05T12:19:47.650Z,19.00
2022-12-05T12:34:51.952Z,20.60
2022-12-05T12:49:52.669Z,21.00
2022-12-05T13:04:52.882Z,21.20
2022-12-05T13:19:53.070Z,20.50
2022-12-05T13:34:53.785Z,22.90
2022-12-05T13:49:54.425Z,23.90
2022-12-05T14:04:54.434Z,27.40
2022-12-05T14:19:54.660Z,30.00
2022-12-05T14:34:55.178Z,31.70
2022-12-05T14:49:56.450Z,27.00
2022-12-05T15:04:56.705Z,27.60
2022-12-05T15:19:57.274Z,27.00
2022-12-05T15:34:58.354Z,30.40
2022-12-05T15:49:59.515Z,23.40
2022-12-05T16:04:59.651Z,35.20
2022-12-05T16:20:00.126Z,31.20
2022-12-05T16:35:01.123Z,28.70
2022-12-05T16:50:01.899Z,33.00
2022-12-05T17:05:02.611Z,33.20
2022-12-05T17:20:02.829Z,38.50
2022-12-05T17:35:06.853Z,39.10
2022-12-05T17:50:07.154Z,37.90
2022-12-05T18:05:07.330Z,39.40
2022-12-05T18:20:07.536Z,38.10
2022-12-05T18:35:12.743Z,38.50
2022-12-05T18:50:14.255Z,37.90
2022-12-05T19:05:14.408Z,37.00
2022-12-05T19:20:15.845Z,36.30
2022-12-05T19:35:16.051Z,31.20
2022-12-05T19:50:16.184Z,32.10
2022-12-05T20:05:16.368Z,31.30
2022-12-05T20:20:16.565Z,29.60
2022-12-05T20:35:22.555Z,28.00
2022-12-05T20:50:21.909Z,24.60
2022-12-05T21:05:22.107Z,24.70
2022-12-05T21:20:22.367Z,24.40
2022-12-05T21:35:22.567Z,26.00
2022-12-05T21:50:22.702Z,25.00
2022-12-05T22:05:22.945Z,26.50
2022-12-05T22:20:23.115Z,24.00
2022-12-05T22:35:23.325Z,22.60
2022-12-05T22:50:23.532Z,16.80
2022-12-05T23:05:23.834Z,13.90
2022-12-05T23:20:25.268Z,14.30
2022-12-05T23:35:25.485Z,14.90
2022-12-05T23:50:25.740Z,15.20
